Time;durP1;ratioP1;P1;durP2;ratioP2;P2;SDS_P1;SDS_P2;PMS_P1;PMS_P2;Temp;Humidity;BMP_temperature;BMP_pressure;BME280_temperature;BME280_humidity;BME280_pressure;Samples;Min_cycle;Max_cycle;Signal;HPM_P1;HPM_P2
2022/03/16 00:01:56;;;;;;;28.73;26.47;;;;;;;;;;4987608;28;20631;-85
2022/03/16 00:04:24;;;;;;;29.80;26.92;;;;;;;;;;4985303;28;20447;-85
2022/03/16 00:06:51;;;;;;;29.17;26.98;;;;;;;;;;4983793;28;20192;-85
2022/03/16 00:09:20;;;;;;;27.85;25.73;;;;;;;;;;4984357;28;20641;-85
2022/03/16 00:11:48;;;;;;;27.75;25.45;;;;;;;;;;4983965;28;20188;-85
2022/03/16 00:14:15;;;;;;;30.88;27.92;;;;;;;;;;4984571;28;20198;-86
2022/03/16 00:16:42;;;;;;;29.50;27.15;;;;;;;;;;4986830;28;20207;-85
2022/03/16 00:19:10;;;;;;;28.00;26.20;;;;;;;;;;4989882;28;20243;-86
2022/03/16 00:21:37;;;;;;;28.85;26.75;;;;;;;;;;4989483;28;20262;-85
2022/03/16 00:24:05;;;;;;;29.45;27.25;;;;;;;;;;4986232;28;20646;-86
2022/03/16 00:26:33;;;;;;;29.02;26.58;;;;;;;;;;4982631;28;20207;-85
2022/03/16 00:29:01;;;;;;;28.25;26.33;;;;;;;;;;4984356;28;20191;-85
2022/03/16 00:31:28;;;;;;;29.17;27.05;;;;;;;;;;4982755;28;20195;-86
2022/03/16 00:33:56;;;;;;;28.95;26.67;;;;;;;;;;4983075;28;20194;-85
2022/03/16 00:36:23;;;;;;;28.77;26.77;;;;;;;;;;4982204;28;20194;-85
2022/03/16 00:38:50;;;;;;;29.10;26.85;;;;;;;;;;4983673;28;20192;-86
2022/03/16 00:41:18;;;;;;;29.88;27.48;;;;;;;;;;4986751;28;20223;-86
2022/03/16 00:43:47;;;;;;;28.77;26.73;;;;;;;;;;4984525;28;20198;-85
2022/03/16 00:46:14;;;;;;;31.10;28.02;;;;;;;;;;4985078;28;20435;-86
2022/03/16 00:48:41;;;;;;;30.00;27.60;;;;;;;;;;4985803;28;20203;-86
2022/03/16 00:51:10;;;;;;;28.08;25.98;;;;;;;;;;4987997;28;20597;-85
2022/03/16 00:53:39;;;;;;;29.03;27.00;;;;;;;;;;4992226;28;20604;-85
2022/03/16 00:56:07;;;;;;;29.73;27.40;;;;;;;;;;4991793;28;20437;-86
2022/03/16 00:58:35;;;;;;;29.80;27.30;;;;;;;;;;4986828;28;20709;-86
2022/03/16 01:01:05;;;;;;;29.42;27.17;;;;;;;;;;4987517;28;20274;-86
2022/03/16 01:03:32;;;;;;;29.40;27.27;;;;;;;;;;4979862;28;20199;-86
2022/03/16 01:06:00;;;;;;;28.77;26.65;;;;;;;;;;4978707;28;20661;-85
2022/03/16 01:08:27;;;;;;;29.83;27.67;;;;;;;;;;4977861;28;20219;-86
2022/03/16 01:10:54;;;;;;;30.85;28.40;;;;;;;;;;4977446;28;20203;-85
2022/03/16 01:13:22;;;;;;;29.48;27.25;;;;;;;;;;4978011;28;20598;-86
2022/03/16 01:15:49;;;;;;;30.40;27.80;;;;;;;;;;4977647;28;20196;-86
2022/03/16 01:18:18;;;;;;;31.25;28.92;;;;;;;;;;4977449;28;20196;-85
2022/03/16 01:20:45;;;;;;;31.05;28.58;;;;;;;;;;4977444;28;20211;-86
2022/03/16 01:23:13;;;;;;;28.50;26.40;;;;;;;;;;4977099;28;20713;-85
2022/03/16 01:25:40;;;;;;;31.73;29.42;;;;;;;;;;4977776;28;20196;-86
2022/03/16 01:28:07;;;;;;;30.55;28.35;;;;;;;;;;4977331;28;20198;-86
2022/03/16 01:30:35;;;;;;;28.40;26.33;;;;;;;;;;4977904;28;20207;-86
2022/03/16 01:33:02;;;;;;;28.23;26.33;;;;;;;;;;4977980;28;20195;-85
2022/03/16 01:35:31;;;;;;;27.70;25.60;;;;;;;;;;4978102;28;20480;-86
2022/03/16 01:37:58;;;;;;;29.25;27.05;;;;;;;;;;4977561;28;20417;-85
2022/03/16 01:40:26;;;;;;;30.92;28.73;;;;;;;;;;4977625;28;20194;-86
2022/03/16 01:42:53;;;;;;;30.20;27.90;;;;;;;;;;4977266;28;20233;-86
2022/03/16 01:45:21;;;;;;;29.80;27.35;;;;;;;;;;4977487;28;20245;-86
2022/03/16 01:47:48;;;;;;;28.35;26.20;;;;;;;;;;4977295;28;20192;-86
2022/03/16 01:50:16;;;;;;;28.00;26.00;;;;;;;;;;4976849;28;20280;-86
2022/03/16 01:52:44;;;;;;;29.08;26.92;;;;;;;;;;4977055;28;20439;-86
2022/03/16 01:55:12;;;;;;;29.00;26.63;;;;;;;;;;4976907;28;20708;-86
2022/03/16 01:57:41;;;;;;;29.55;27.35;;;;;;;;;;4976653;28;20207;-86
2022/03/16 02:00:09;;;;;;;29.45;27.17;;;;;;;;;;4977406;28;20614;-86
2022/03/16 02:02:37;;;;;;;28.70;26.45;;;;;;;;;;4977095;28;20281;-85
2022/03/16 02:05:04;;;;;;;28.88;26.98;;;;;;;;;;4977293;28;20243;-86
2022/03/16 02:07:31;;;;;;;28.58;26.38;;;;;;;;;;4977267;28;20192;-84
2022/03/16 02:10:01;;;;;;;28.02;25.92;;;;;;;;;;4977179;28;20642;-85
2022/03/16 02:12:29;;;;;;;26.80;24.90;;;;;;;;;;4976393;28;20199;-85
2022/03/16 02:14:59;;;;;;;29.20;26.80;;;;;;;;;;4976510;28;20188;-85
2022/03/16 02:17:26;;;;;;;29.88;27.48;;;;;;;;;;4976527;28;20191;-86
2022/03/16 02:19:54;;;;;;;30.35;27.98;;;;;;;;;;4976369;28;20298;-86
2022/03/16 02:22:21;;;;;;;30.88;28.20;;;;;;;;;;4976260;28;20225;-86
2022/03/16 02:24:50;;;;;;;29.55;27.30;;;;;;;;;;4976830;28;20646;-85
2022/03/16 02:27:17;;;;;;;30.40;27.95;;;;;;;;;;4977027;28;20199;-86
2022/03/16 02:29:44;;;;;;;30.52;28.10;;;;;;;;;;4976653;28;20238;-86
2022/03/16 02:32:12;;;;;;;29.52;27.33;;;;;;;;;;4976827;28;20535;-86
2022/03/16 02:34:39;;;;;;;29.42;27.27;;;;;;;;;;4976628;28;20203;-87
2022/03/16 02:37:06;;;;;;;31.38;28.67;;;;;;;;;;4976519;28;20605;-86
2022/03/16 02:39:34;;;;;;;30.60;28.20;;;;;;;;;;4976273;28;20192;-86
2022/03/16 02:42:04;;;;;;;31.88;29.25;;;;;;;;;;4976537;28;20215;-86
2022/03/16 02:44:31;;;;;;;30.30;27.95;;;;;;;;;;4976547;28;20282;-86
2022/03/16 02:46:58;;;;;;;29.67;27.05;;;;;;;;;;4976808;28;20238;-86
2022/03/16 02:49:28;;;;;;;29.42;27.25;;;;;;;;;;4976065;28;20187;-86
2022/03/16 02:51:56;;;;;;;30.50;28.08;;;;;;;;;;4976115;28;20194;-85
2022/03/16 02:54:23;;;;;;;28.42;26.40;;;;;;;;;;4976261;28;20199;-86
2022/03/16 02:56:50;;;;;;;30.15;27.85;;;;;;;;;;4975642;28;20219;-85
2022/03/16 02:59:19;;;;;;;30.13;27.73;;;;;;;;;;4976236;28;20549;-85
2022/03/16 03:01:46;;;;;;;29.90;27.67;;;;;;;;;;4976016;28;20216;-85
2022/03/16 03:04:14;;;;;;;30.10;27.70;;;;;;;;;;4976143;28;20192;-86
2022/03/16 03:06:41;;;;;;;31.30;28.80;;;;;;;;;;4975436;28;20594;-86
2022/03/16 03:09:08;;;;;;;30.33;28.10;;;;;;;;;;4975804;28;20666;-86
2022/03/16 03:11:36;;;;;;;31.73;29.23;;;;;;;;;;4976063;28;20203;-86
2022/03/16 03:14:03;;;;;;;30.27;27.88;;;;;;;;;;4976011;28;20227;-86
2022/03/16 03:16:32;;;;;;;32.47;29.65;;;;;;;;;;4975074;28;20250;-86
2022/03/16 03:18:59;;;;;;;30.77;28.27;;;;;;;;;;4975155;28;20327;-86
2022/03/16 03:21:27;;;;;;;29.90;27.35;;;;;;;;;;4975972;28;20278;-86
2022/03/16 03:23:55;;;;;;;29.60;27.23;;;;;;;;;;4976041;28;20566;-86
2022/03/16 03:26:22;;;;;;;32.33;29.17;;;;;;;;;;4975557;28;20215;-86
2022/03/16 03:28:50;;;;;;;32.80;30.08;;;;;;;;;;4976230;28;20188;-86
2022/03/16 03:31:17;;;;;;;32.95;29.90;;;;;;;;;;4975474;28;20191;-85
2022/03/16 03:33:46;;;;;;;33.92;30.60;;;;;;;;;;4975236;28;20242;-86
2022/03/16 03:36:13;;;;;;;31.58;28.35;;;;;;;;;;4975679;28;20221;-86
2022/03/16 03:38:41;;;;;;;33.00;29.92;;;;;;;;;;4975907;28;20672;-86
2022/03/16 03:41:08;;;;;;;32.13;29.50;;;;;;;;;;4975520;28;20251;-86
2022/03/16 03:43:35;;;;;;;31.92;28.92;;;;;;;;;;4975917;28;20250;-85
2022/03/16 03:46:03;;;;;;;31.20;28.60;;;;;;;;;;4975907;28;20207;-86
2022/03/16 03:48:30;;;;;;;31.70;28.90;;;;;;;;;;4975638;28;20207;-86
2022/03/16 03:51:00;;;;;;;32.33;29.70;;;;;;;;;;4976066;28;20191;-86
2022/03/16 03:53:27;;;;;;;31.27;28.73;;;;;;;;;;4976326;28;20523;-85
2022/03/16 03:55:54;;;;;;;32.15;29.60;;;;;;;;;;4975924;28;20200;-86
2022/03/16 03:58:22;;;;;;;32.83;30.17;;;;;;;;;;4974859;28;20192;-86
2022/03/16 04:00:50;;;;;;;31.17;28.20;;;;;;;;;;4975648;28;20196;-86
2022/03/16 04:03:17;;;;;;;32.08;29.23;;;;;;;;;;4958387;28;20283;-85
2022/03/16 04:05:45;;;;;;;31.90;29.10;;;;;;;;;;4958914;28;20219;-85
2022/03/16 04:08:13;;;;;;;33.83;31.13;;;;;;;;;;4975535;28;20191;-86
2022/03/16 04:10:41;;;;;;;33.00;30.30;;;;;;;;;;4975924;28;20196;-85
2022/03/16 04:13:08;;;;;;;32.03;29.73;;;;;;;;;;4975591;28;20215;-86
2022/03/16 04:15:35;;;;;;;31.80;29.25;;;;;;;;;;4975360;28;20278;-86
2022/03/16 04:18:03;;;;;;;33.40;29.98;;;;;;;;;;4974929;28;20188;-86
2022/03/16 04:20:30;;;;;;;31.58;29.17;;;;;;;;;;4974742;28;20232;-86
2022/03/16 04:22:58;;;;;;;31.33;28.83;;;;;;;;;;4975011;28;20223;-85
2022/03/16 04:25:27;;;;;;;34.38;31.17;;;;;;;;;;4974587;28;20207;-85
2022/03/16 04:27:54;;;;;;;33.33;30.52;;;;;;;;;;4957469;28;20215;-86
2022/03/16 04:30:21;;;;;;;32.53;29.90;;;;;;;;;;4977328;28;20192;-86
2022/03/16 04:32:51;;;;;;;32.20;29.15;;;;;;;;;;4978695;28;20195;-86
2022/03/16 04:35:19;;;;;;;36.10;32.63;;;;;;;;;;4961035;28;20290;-86
2022/03/16 04:37:47;;;;;;;31.15;28.65;;;;;;;;;;4978227;28;20223;-86
2022/03/16 04:40:14;;;;;;;33.97;31.10;;;;;;;;;;4977883;28;20342;-86
2022/03/16 04:42:43;;;;;;;32.42;29.48;;;;;;;;;;4977757;28;20219;-86
2022/03/16 04:45:12;;;;;;;32.90;30.20;;;;;;;;;;4977719;28;20195;-86
2022/03/16 04:47:40;;;;;;;32.60;29.67;;;;;;;;;;4977988;28;20196;-86
2022/03/16 04:50:07;;;;;;;31.38;28.98;;;;;;;;;;4978168;28;20211;-86
2022/03/16 04:52:43;;;;;;;33.28;30.58;;;;;;;;;;4978347;28;20191;-85
2022/03/16 04:55:10;;;;;;;35.78;32.25;;;;;;;;;;4978584;28;20219;-85
2022/03/16 04:57:37;;;;;;;33.88;30.88;;;;;;;;;;4978566;28;20196;-86
2022/03/16 05:00:08;;;;;;;36.20;33.03;;;;;;;;;;4978299;28;20635;-86
2022/03/16 05:02:36;;;;;;;34.55;31.50;;;;;;;;;;4960910;28;20235;-86
2022/03/16 05:05:04;;;;;;;34.47;31.63;;;;;;;;;;4977997;28;20290;-86
2022/03/16 05:07:31;;;;;;;37.55;34.22;;;;;;;;;;4978048;28;20567;-86
2022/03/16 05:09:59;;;;;;;35.83;32.83;;;;;;;;;;4978348;28;20192;-86
2022/03/16 05:12:26;;;;;;;37.58;34.15;;;;;;;;;;4978352;28;20194;-86
2022/03/16 05:14:53;;;;;;;36.97;33.70;;;;;;;;;;4978208;28;20261;-86
2022/03/16 05:17:22;;;;;;;36.92;33.80;;;;;;;;;;4977811;28;20192;-86
2022/03/16 05:19:51;;;;;;;36.80;33.72;;;;;;;;;;4960503;28;20239;-85
2022/03/16 05:22:19;;;;;;;35.97;32.70;;;;;;;;;;4977444;28;20242;-86
2022/03/16 05:24:47;;;;;;;36.75;33.25;;;;;;;;;;4977793;28;20314;-86
2022/03/16 05:27:14;;;;;;;37.08;33.63;;;;;;;;;;4977749;28;20523;-86
2022/03/16 05:29:41;;;;;;;36.35;33.03;;;;;;;;;;4977604;28;20709;-85
2022/03/16 05:32:09;;;;;;;37.58;34.25;;;;;;;;;;4978068;28;20192;-86
2022/03/16 05:34:38;;;;;;;37.33;33.60;;;;;;;;;;4978233;28;20196;-85
2022/03/16 05:37:06;;;;;;;36.55;33.30;;;;;;;;;;4978713;28;20202;-84
2022/03/16 05:39:34;;;;;;;37.67;34.42;;;;;;;;;;4979326;28;20219;-85
2022/03/16 05:42:01;;;;;;;37.47;33.78;;;;;;;;;;4980383;28;20550;-85
2022/03/16 05:44:29;;;;;;;36.35;33.05;;;;;;;;;;4976779;28;20203;-85
2022/03/16 05:46:57;;;;;;;38.28;34.05;;;;;;;;;;4976282;28;20250;-84
2022/03/16 05:49:25;;;;;;;37.25;33.78;;;;;;;;;;4976581;28;20191;-85
2022/03/16 05:51:54;;;;;;;36.28;32.97;;;;;;;;;;4978375;28;20216;-85
2022/03/16 05:54:21;;;;;;;35.40;32.30;;;;;;;;;;4978747;28;20187;-85
2022/03/16 05:56:49;;;;;;;37.58;32.05;;;;;;;;;;4976972;28;20200;-85
2022/03/16 05:59:16;;;;;;;38.05;34.38;;;;;;;;;;4976240;28;20194;-83
2022/03/16 06:01:43;;;;;;;36.80;33.00;;;;;;;;;;4976390;28;20262;-84
2022/03/16 06:04:11;;;;;;;36.55;32.80;;;;;;;;;;4976787;28;20230;-84
2022/03/16 06:06:38;;;;;;;35.45;32.13;;;;;;;;;;4975724;28;20195;-85
2022/03/16 06:09:07;;;;;;;37.22;33.28;;;;;;;;;;4976575;28;20250;-85
2022/03/16 06:11:36;;;;;;;36.17;32.63;;;;;;;;;;4976606;28;20320;-84
2022/03/16 06:14:03;;;;;;;34.53;31.33;;;;;;;;;;4977367;28;20203;-85
2022/03/16 06:16:31;;;;;;;36.15;32.78;;;;;;;;;;4976410;28;20195;-84
2022/03/16 06:18:58;;;;;;;36.20;32.58;;;;;;;;;;4977379;28;20237;-85
2022/03/16 06:21:25;;;;;;;34.95;31.88;;;;;;;;;;4977141;28;20191;-84
2022/03/16 06:23:53;;;;;;;36.67;32.78;;;;;;;;;;4977190;28;20685;-84
2022/03/16 06:26:21;;;;;;;36.05;32.45;;;;;;;;;;4975519;28;20196;-85
2022/03/16 06:28:49;;;;;;;38.08;34.22;;;;;;;;;;4975646;28;20196;-84
2022/03/16 06:31:16;;;;;;;34.50;31.30;;;;;;;;;;4975775;28;20547;-84
2022/03/16 06:33:43;;;;;;;35.47;31.92;;;;;;;;;;4975399;28;20199;-84
2022/03/16 06:36:11;;;;;;;33.80;30.25;;;;;;;;;;4975445;28;20187;-83
2022/03/16 06:38:38;;;;;;;35.13;31.58;;;;;;;;;;4975362;28;20641;-84
2022/03/16 06:41:06;;;;;;;36.35;32.90;;;;;;;;;;4976194;28;20200;-84
2022/03/16 06:43:36;;;;;;;37.60;31.77;;;;;;;;;;4975494;28;20223;-84
2022/03/16 06:46:03;;;;;;;36.15;32.72;;;;;;;;;;4975553;28;20226;-84
2022/03/16 06:48:30;;;;;;;34.38;30.77;;;;;;;;;;4975365;28;20191;-84
2022/03/16 06:50:58;;;;;;;35.75;32.17;;;;;;;;;;4974883;28;20192;-84
2022/03/16 06:53:27;;;;;;;36.78;32.92;;;;;;;;;;4974329;28;20546;-83
2022/03/16 06:55:55;;;;;;;36.58;32.65;;;;;;;;;;4974922;28;20210;-83
2022/03/16 06:58:22;;;;;;;33.65;30.20;;;;;;;;;;4974534;28;20196;-84
2022/03/16 07:00:51;;;;;;;34.30;31.08;;;;;;;;;;4975285;28;21027;-86
2022/03/16 07:03:18;;;;;;;33.50;30.20;;;;;;;;;;4974970;28;20674;-84
2022/03/16 07:05:46;;;;;;;33.25;30.13;;;;;;;;;;4976203;28;20207;-84
2022/03/16 07:08:14;;;;;;;34.13;30.83;;;;;;;;;;4974625;28;20763;-84
2022/03/16 07:10:42;;;;;;;34.35;30.65;;;;;;;;;;4975103;28;20204;-84
2022/03/16 07:13:11;;;;;;;34.20;30.90;;;;;;;;;;4974979;28;20203;-85
2022/03/16 07:15:38;;;;;;;33.93;30.73;;;;;;;;;;4974982;28;20191;-83
2022/03/16 07:18:07;;;;;;;34.13;30.58;;;;;;;;;;4957301;28;20497;-84
2022/03/16 07:20:35;;;;;;;35.10;31.80;;;;;;;;;;4957612;28;20701;-83
2022/03/16 07:23:03;;;;;;;32.77;29.77;;;;;;;;;;4976371;28;20215;-87
2022/03/16 07:25:31;;;;;;;35.93;32.40;;;;;;;;;;4975618;28;20417;-85
2022/03/16 07:27:58;;;;;;;33.63;30.10;;;;;;;;;;4975044;28;20443;-84
2022/03/16 07:30:26;;;;;;;34.53;31.08;;;;;;;;;;4958026;28;20455;-85
2022/03/16 07:32:53;;;;;;;32.07;29.23;;;;;;;;;;4975223;28;20195;-86
2022/03/16 07:35:26;;;;;;;32.73;29.63;;;;;;;;;;4975015;28;20439;-84
2022/03/16 07:37:54;;;;;;;31.83;28.93;;;;;;;;;;4974677;28;20443;-85
2022/03/16 07:40:22;;;;;;;33.40;30.30;;;;;;;;;;4975931;28;20922;-86
2022/03/16 07:42:50;;;;;;;33.80;30.60;;;;;;;;;;4975272;28;20457;-86
2022/03/16 07:45:18;;;;;;;31.60;28.50;;;;;;;;;;4976126;28;20425;-86
2022/03/16 07:47:46;;;;;;;32.27;29.17;;;;;;;;;;4976135;28;20452;-85
2022/03/16 07:50:13;;;;;;;32.90;29.90;;;;;;;;;;4975577;28;20486;-85
2022/03/16 07:52:42;;;;;;;32.30;29.43;;;;;;;;;;4975630;28;20424;-86
2022/03/16 07:55:11;;;;;;;34.20;30.80;;;;;;;;;;4977764;28;20830;-86
2022/03/16 07:57:38;;;;;;;34.80;31.20;;;;;;;;;;4974504;28;20426;-86
2022/03/16 08:00:06;;;;;;;35.83;32.43;;;;;;;;;;4957492;28;20489;-86
2022/03/16 08:02:34;;;;;;;34.30;31.10;;;;;;;;;;4974461;28;20909;-85
2022/03/16 08:05:01;;;;;;;35.60;32.20;;;;;;;;;;4978308;28;20413;-84
2022/03/16 08:07:28;;;;;;;34.60;31.33;;;;;;;;;;4978691;28;21058;-85
2022/03/16 08:09:57;;;;;;;34.40;31.27;;;;;;;;;;4980843;28;20421;-85
2022/03/16 08:12:25;;;;;;;30.60;27.83;;;;;;;;;;4978828;28;20523;-83
2022/03/16 08:14:53;;;;;;;33.83;30.87;;;;;;;;;;4978304;28;20442;-86
2022/03/16 08:17:20;;;;;;;34.30;30.90;;;;;;;;;;4960905;28;20430;-85
2022/03/16 08:19:48;;;;;;;34.17;30.97;;;;;;;;;;4978878;28;20465;-85
2022/03/16 08:22:15;;;;;;;35.13;31.87;;;;;;;;;;4961541;28;20468;-85
2022/03/16 08:24:43;;;;;;;34.63;31.50;;;;;;;;;;4978333;28;20519;-86
2022/03/16 08:27:12;;;;;;;32.90;29.90;;;;;;;;;;4978337;28;20834;-86
2022/03/16 08:29:39;;;;;;;34.87;31.37;;;;;;;;;;4978498;28;20432;-85
2022/03/16 08:32:07;;;;;;;35.60;31.80;;;;;;;;;;4977488;28;20849;-83
2022/03/16 08:34:34;;;;;;;34.20;31.20;;;;;;;;;;4977703;28;20417;-85
2022/03/16 08:37:02;;;;;;;34.33;31.13;;;;;;;;;;4978503;28;20550;-86
2022/03/16 08:39:30;;;;;;;33.87;30.87;;;;;;;;;;4979457;28;20468;-86
2022/03/16 08:41:58;;;;;;;35.40;32.10;;;;;;;;;;4978699;28;20493;-85
2022/03/16 08:44:26;;;;;;;34.73;31.27;;;;;;;;;;4978184;28;20494;-84
2022/03/16 08:46:54;;;;;;;37.50;33.70;;;;;;;;;;4978197;28;20812;-86
2022/03/16 08:49:21;;;;;;;34.73;31.30;;;;;;;;;;4977425;28;20439;-85
2022/03/16 08:51:49;;;;;;;35.57;32.10;;;;;;;;;;4978171;28;20454;-87
2022/03/16 08:54:16;;;;;;;34.40;31.10;;;;;;;;;;4978097;28;20458;-84
2022/03/16 08:56:44;;;;;;;36.97;33.17;;;;;;;;;;4977422;28;20481;-86
2022/03/16 08:59:11;;;;;;;36.03;32.80;;;;;;;;;;4977407;28;20812;-84
2022/03/16 09:01:40;;;;;;;34.50;31.23;;;;;;;;;;4960245;28;20920;-84
2022/03/16 09:04:08;;;;;;;38.83;35.03;;;;;;;;;;4977916;28;20480;-86
2022/03/16 09:06:35;;;;;;;31.93;29.27;;;;;;;;;;4976776;28;20425;-82
2022/03/16 09:09:02;;;;;;;37.83;34.33;;;;;;;;;;4976942;28;20463;-82
2022/03/16 09:11:30;;;;;;;36.93;33.33;;;;;;;;;;4976942;28;20545;-83
2022/03/16 09:13:57;;;;;;;36.00;32.63;;;;;;;;;;4976831;28;20421;-82
2022/03/16 09:16:24;;;;;;;37.03;33.43;;;;;;;;;;4975874;28;20425;-82
2022/03/16 09:18:53;;;;;;;34.47;31.20;;;;;;;;;;4976641;28;20487;-83
2022/03/16 09:21:20;;;;;;;36.27;33.00;;;;;;;;;;4976787;28;20435;-83
2022/03/16 09:23:48;;;;;;;39.47;35.40;;;;;;;;;;4976264;28;20465;-83
2022/03/16 09:26:15;;;;;;;37.00;33.40;;;;;;;;;;4976121;28;20493;-83
2022/03/16 09:28:44;;;;;;;36.60;33.00;;;;;;;;;;4976286;28;20443;-83
2022/03/16 09:31:12;;;;;;;33.87;30.73;;;;;;;;;;4976466;28;20409;-83
2022/03/16 09:33:40;;;;;;;36.07;32.77;;;;;;;;;;4976123;28;20510;-83
2022/03/16 09:36:09;;;;;;;33.60;30.33;;;;;;;;;;4976496;28;20790;-82
2022/03/16 09:38:36;;;;;;;35.47;32.03;;;;;;;;;;4976406;28;20450;-83
2022/03/16 09:41:04;;;;;;;37.13;33.50;;;;;;;;;;4975917;28;20447;-83
2022/03/16 09:43:33;;;;;;;38.20;34.40;;;;;;;;;;4975936;28;20830;-82
2022/03/16 09:46:04;;;;;;;34.97;31.37;;;;;;;;;;4975908;28;20505;-82
2022/03/16 09:48:32;;;;;;;33.47;30.20;;;;;;;;;;4958710;28;20450;-83
2022/03/16 09:51:00;;;;;;;39.47;35.50;;;;;;;;;;4975834;28;20533;-83
2022/03/16 09:53:29;;;;;;;32.20;29.10;;;;;;;;;;4975877;28;20506;-82
2022/03/16 09:55:56;;;;;;;37.30;33.60;;;;;;;;;;4975871;28;20459;-83
2022/03/16 09:58:24;;;;;;;37.20;33.57;;;;;;;;;;4975630;28;20421;-82
2022/03/16 10:00:53;;;;;;;37.70;34.10;;;;;;;;;;4975729;28;20898;-82
2022/03/16 10:03:23;;;;;;;38.63;34.97;;;;;;;;;;4975764;28;20447;-82
2022/03/16 10:05:51;;;;;;;36.53;32.83;;;;;;;;;;4975877;28;20439;-83
2022/03/16 10:08:30;;;;;;;38.87;35.00;;;;;;;;;;4975681;28;20566;-83
2022/03/16 10:13:57;;;;;;;35.23;32.00;;;;;;;;;;4975390;28;20917;-83
2022/03/16 10:16:25;;;;;;;33.50;30.30;;;;;;;;;;4975466;28;20447;-83
2022/03/16 10:18:56;;;;;;;36.80;33.40;;;;;;;;;;4975431;28;20491;-83
2022/03/16 10:21:24;;;;;;;38.20;34.60;;;;;;;;;;4975324;28;20417;-83
2022/03/16 10:24:03;;;;;;;32.10;29.53;;;;;;;;;;4975226;28;20475;-83
2022/03/16 10:26:31;;;;;;;34.67;31.50;;;;;;;;;;4974848;28;20453;-82
2022/03/16 10:29:04;;;;;;;33.77;30.87;;;;;;;;;;4975239;28;20478;-82
2022/03/16 10:31:35;;;;;;;37.47;34.07;;;;;;;;;;4975305;28;20443;-83
2022/03/16 10:34:06;;;;;;;35.70;32.60;;;;;;;;;;4975435;28;20457;-83
2022/03/16 10:36:39;;;;;;;37.03;33.73;;;;;;;;;;4974945;28;20941;-82
2022/03/16 10:39:07;;;;;;;37.17;33.60;;;;;;;;;;4975130;28;20426;-81
2022/03/16 10:47:11;;;;;;;35.90;32.70;;;;;;;;;;4975777;28;20532;-83
2022/03/16 10:49:39;;;;;;;33.10;30.43;;;;;;;;;;4974765;28;20458;-83
2022/03/16 10:52:09;;;;;;;33.77;30.97;;;;;;;;;;4974680;28;20475;-83
2022/03/16 10:54:38;;;;;;;36.27;32.93;;;;;;;;;;4974703;28;20462;-82
2022/03/16 10:57:08;;;;;;;35.57;32.67;;;;;;;;;;4974394;28;20443;-83
2022/03/16 10:59:36;;;;;;;33.77;30.97;;;;;;;;;;4974677;28;20486;-83
2022/03/16 11:02:05;;;;;;;33.53;30.27;;;;;;;;;;4974679;28;20439;-82
2022/03/16 11:04:33;;;;;;;36.40;33.20;;;;;;;;;;4974642;28;20462;-83
2022/03/16 11:07:00;;;;;;;36.20;32.93;;;;;;;;;;4974736;28;20481;-83
2022/03/16 11:09:28;;;;;;;35.37;32.37;;;;;;;;;;4974488;28;20505;-83
2022/03/16 11:14:43;;;;;;;33.30;30.30;;;;;;;;;;4974728;28;20440;-84
2022/03/16 11:17:10;;;;;;;34.07;31.07;;;;;;;;;;4957006;28;20455;-84
2022/03/16 11:19:44;;;;;;;35.03;31.70;;;;;;;;;;4974396;28;20491;-82
2022/03/16 11:22:13;;;;;;;33.83;31.03;;;;;;;;;;4974392;28;20538;-83
2022/03/16 11:24:43;;;;;;;35.43;32.40;;;;;;;;;;4973968;28;20502;-83
2022/03/16 11:27:31;;;;;;;34.80;31.90;;;;;;;;;;4974281;28;20493;-83
2022/03/16 11:30:08;;;;;;;33.20;30.67;;;;;;;;;;4974292;28;20439;-83
2022/03/16 11:32:38;;;;;;;35.37;32.37;;;;;;;;;;4974413;28;20414;-83
2022/03/16 11:35:08;;;;;;;32.07;29.53;;;;;;;;;;4974363;28;20446;-82
2022/03/16 11:37:36;;;;;;;34.57;31.57;;;;;;;;;;4973816;28;20413;-81
2022/03/16 11:40:10;;;;;;;32.20;29.77;;;;;;;;;;4974162;28;20941;-83
2022/03/16 11:42:39;;;;;;;31.77;29.20;;;;;;;;;;4974013;28;20866;-83
2022/03/16 11:45:22;;;;;;;33.37;30.50;;;;;;;;;;4974036;28;21328;-82
2022/03/16 11:47:50;;;;;;;35.23;32.13;;;;;;;;;;4972996;28;20804;-81
2022/03/16 11:50:20;;;;;;;35.17;32.07;;;;;;;;;;4973922;28;20421;-83
2022/03/16 11:53:17;;;;;;;34.73;31.83;;;;;;;;;;4974250;28;20454;-81
2022/03/16 11:55:45;;;;;;;33.63;30.93;;;;;;;;;;4958099;28;20474;-82
2022/03/16 11:58:28;;;;;;;33.60;31.00;;;;;;;;;;4973785;28;20443;-83
2022/03/16 12:01:14;;;;;;;36.77;33.57;;;;;;;;;;4974110;28;20459;-86
2022/03/16 12:03:45;;;;;;;33.37;30.67;;;;;;;;;;4974279;28;20451;-83
2022/03/16 12:06:12;;;;;;;36.17;33.13;;;;;;;;;;4974116;28;20820;-84
2022/03/16 12:08:52;;;;;;;36.73;33.53;;;;;;;;;;4974188;28;20578;-83
2022/03/16 12:14:07;;;;;;;36.97;34.00;;;;;;;;;;4973960;28;20409;-83
2022/03/16 12:16:41;;;;;;;34.80;31.93;;;;;;;;;;4973859;28;20464;-84
2022/03/16 12:19:24;;;;;;;38.80;35.47;;;;;;;;;;4973711;28;20496;-83
2022/03/16 12:21:52;;;;;;;37.77;34.37;;;;;;;;;;4973530;28;20525;-83
2022/03/16 12:30:17;;;;;;;35.43;32.13;;;;;;;;;;4895420;29;20420;-84
2022/03/16 12:32:44;;;;;;;38.50;34.90;;;;;;;;;;4895437;29;20446;-83
2022/03/16 12:35:12;;;;;;;37.47;34.33;;;;;;;;;;4895326;29;20490;-84
2022/03/16 12:37:49;;;;;;;38.07;34.97;;;;;;;;;;4895148;29;20923;-83
2022/03/16 12:40:16;;;;;;;35.77;32.47;;;;;;;;;;4895281;29;20412;-83
2022/03/16 12:42:42;;;;;;;38.33;35.10;;;;;;;;;;4896004;29;20556;-87
2022/03/16 12:45:12;;;;;;;37.80;34.60;;;;;;;;;;4896287;29;20489;-84
2022/03/16 12:47:43;;;;;;;38.40;35.10;;;;;;;;;;4895143;29;20474;-84
2022/03/16 12:50:13;;;;;;;39.83;36.27;;;;;;;;;;4895776;29;20895;-84
2022/03/16 12:52:46;;;;;;;37.07;33.97;;;;;;;;;;4898808;29;20507;-84
2022/03/16 12:55:16;;;;;;;39.07;35.60;;;;;;;;;;4898627;29;20920;-83
2022/03/16 12:57:51;;;;;;;39.80;36.17;;;;;;;;;;4899513;29;20953;-84
2022/03/16 13:00:19;;;;;;;36.80;33.70;;;;;;;;;;4898813;29;20569;-83
2022/03/16 13:02:47;;;;;;;39.07;35.87;;;;;;;;;;4973689;28;20949;-83
2022/03/16 13:05:18;;;;;;;39.07;35.80;;;;;;;;;;4977230;28;20465;-83
2022/03/16 13:07:46;;;;;;;39.57;36.17;;;;;;;;;;4959463;28;20461;-81
2022/03/16 13:10:13;;;;;;;39.57;36.17;;;;;;;;;;4977090;28;20873;-83
2022/03/16 13:12:56;;;;;;;38.10;34.60;;;;;;;;;;4976655;28;20417;-83
2022/03/16 13:15:25;;;;;;;39.17;35.97;;;;;;;;;;4976199;28;20422;-83
2022/03/16 13:17:57;;;;;;;39.10;35.80;;;;;;;;;;4977143;28;20505;-83
2022/03/16 13:20:25;;;;;;;38.10;35.00;;;;;;;;;;4977191;28;20869;-83
2022/03/16 13:23:03;;;;;;;38.47;35.00;;;;;;;;;;4977119;28;20421;-84
2022/03/16 13:25:30;;;;;;;36.43;33.20;;;;;;;;;;4976693;28;20985;-84
2022/03/16 13:27:58;;;;;;;40.67;37.17;;;;;;;;;;4976595;28;20449;-83
2022/03/16 13:30:25;;;;;;;38.67;34.90;;;;;;;;;;4976641;28;20911;-84
2022/03/16 13:32:53;;;;;;;40.23;36.83;;;;;;;;;;4976640;28;20414;-84
2022/03/16 13:35:25;;;;;;;39.60;35.87;;;;;;;;;;4976526;28;20812;-84
2022/03/16 13:38:00;;;;;;;40.37;36.87;;;;;;;;;;4977176;28;20504;-84
2022/03/16 13:40:31;;;;;;;39.80;36.50;;;;;;;;;;4976131;28;20925;-83
2022/03/16 13:43:03;;;;;;;40.27;36.77;;;;;;;;;;4976533;28;20874;-86
2022/03/16 13:45:30;;;;;;;37.70;34.60;;;;;;;;;;4977913;28;20543;-86
2022/03/16 13:48:07;;;;;;;39.60;36.37;;;;;;;;;;4976430;28;20452;-84
2022/03/16 13:50:36;;;;;;;38.20;35.00;;;;;;;;;;4959383;28;20851;-87
2022/03/16 13:53:17;;;;;;;39.10;36.03;;;;;;;;;;4976285;28;20442;-85
2022/03/16 13:55:47;;;;;;;33.73;31.23;;;;;;;;;;4976298;28;20440;-87
2022/03/16 13:58:16;;;;;;;40.17;36.57;;;;;;;;;;4976060;28;20439;-87
2022/03/16 14:00:45;;;;;;;37.30;34.10;;;;;;;;;;4976929;28;21058;-86
2022/03/16 14:03:13;;;;;;;34.07;31.00;;;;;;;;;;4977625;28;20824;-86
2022/03/16 14:05:42;;;;;;;39.13;35.67;;;;;;;;;;4977098;28;20765;-86
2022/03/16 14:08:11;;;;;;;38.10;34.77;;;;;;;;;;4975712;28;20446;-84
2022/03/16 14:10:40;;;;;;;36.43;33.30;;;;;;;;;;4975878;28;20506;-84
2022/03/16 14:13:08;;;;;;;38.67;35.20;;;;;;;;;;4975735;28;20824;-84
2022/03/16 14:15:36;;;;;;;33.67;30.87;;;;;;;;;;4976069;28;20922;-85
2022/03/16 14:18:10;;;;;;;37.53;34.30;;;;;;;;;;4975847;28;20892;-85
2022/03/16 14:20:38;;;;;;;36.13;33.33;;;;;;;;;;4975627;28;20464;-85
2022/03/16 14:23:08;;;;;;;36.03;32.93;;;;;;;;;;4975958;28;20451;-85
2022/03/16 14:25:37;;;;;;;37.40;34.40;;;;;;;;;;4975973;28;20453;-85
2022/03/16 14:28:05;;;;;;;34.63;31.33;;;;;;;;;;4975442;28;20500;-85
2022/03/16 14:30:33;;;;;;;35.90;33.10;;;;;;;;;;4975459;28;20422;-84
2022/03/16 14:33:04;;;;;;;35.60;32.77;;;;;;;;;;4975807;28;20512;-85
2022/03/16 14:35:31;;;;;;;36.60;33.60;;;;;;;;;;4975347;28;20418;-87
2022/03/16 14:38:05;;;;;;;37.57;34.57;;;;;;;;;;4975817;28;20435;-86
2022/03/16 14:40:34;;;;;;;36.33;33.63;;;;;;;;;;4976120;28;20489;-86
2022/03/16 14:43:02;;;;;;;34.70;31.97;;;;;;;;;;4976104;28;20433;-90
2022/03/16 14:45:30;;;;;;;36.17;32.97;;;;;;;;;;4976378;28;20494;-89